sensor_id;sensor_type;location;lat;lon;timestamp;temperature;humidity
52024;DHT22;38038;45.922;13.604;2022-07-15T00:02:07;22.10;95.60
52024;DHT22;38038;45.922;13.604;2022-07-15T00:04:34;22.00;96.00
52024;DHT22;38038;45.922;13.604;2022-07-15T00:07:00;21.80;96.00
52024;DHT22;38038;45.922;13.604;2022-07-15T00:09:26;21.70;96.30
52024;DHT22;38038;45.922;13.604;2022-07-15T00:12:10;21.60;96.50
52024;DHT22;38038;45.922;13.604;2022-07-15T00:14:36;21.40;96.90
52024;DHT22;38038;45.922;13.604;2022-07-15T00:17:02;21.50;96.90
52024;DHT22;38038;45.922;13.604;2022-07-15T00:19:28;21.40;97.40
52024;DHT22;38038;45.922;13.604;2022-07-15T00:21:54;21.30;97.20
52024;DHT22;38038;45.922;13.604;2022-07-15T00:24:20;21.20;97.60
52024;DHT22;38038;45.922;13.604;2022-07-15T00:26:45;21.10;97.90
52024;DHT22;38038;45.922;13.604;2022-07-15T00:29:11;21.20;97.80
52024;DHT22;38038;45.922;13.604;2022-07-15T00:31:37;21.30;97.60
52024;DHT22;38038;45.922;13.604;2022-07-15T00:34:03;21.30;97.40
52024;DHT22;38038;45.922;13.604;2022-07-15T00:36:29;21.40;97.20
52024;DHT22;38038;45.922;13.604;2022-07-15T00:38:55;21.40;97.50
52024;DHT22;38038;45.922;13.604;2022-07-15T00:41:20;21.40;97.30
52024;DHT22;38038;45.922;13.604;2022-07-15T00:43:46;21.50;97.30
52024;DHT22;38038;45.922;13.604;2022-07-15T00:46:18;21.60;97.30
52024;DHT22;38038;45.922;13.604;2022-07-15T00:48:45;21.70;97.20
52024;DHT22;38038;45.922;13.604;2022-07-15T00:51:10;21.70;97.20
52024;DHT22;38038;45.922;13.604;2022-07-15T00:53:38;21.70;97.50
52024;DHT22;38038;45.922;13.604;2022-07-15T00:56:07;21.70;97.50
52024;DHT22;38038;45.922;13.604;2022-07-15T00:58:36;21.70;97.50
52024;DHT22;38038;45.922;13.604;2022-07-15T01:01:03;21.60;97.80
52024;DHT22;38038;45.922;13.604;2022-07-15T01:03:31;21.60;97.60
52024;DHT22;38038;45.922;13.604;2022-07-15T01:05:57;21.40;97.90
52024;DHT22;38038;45.922;13.604;2022-07-15T01:08:24;21.50;97.90
52024;DHT22;38038;45.922;13.604;2022-07-15T01:10:50;21.50;98.20
52024;DHT22;38038;45.922;13.604;2022-07-15T01:13:17;21.30;98.80
52024;DHT22;38038;45.922;13.604;2022-07-15T01:15:44;21.30;98.90
52024;DHT22;38038;45.922;13.604;2022-07-15T01:18:10;21.20;99.10
52024;DHT22;38038;45.922;13.604;2022-07-15T01:20:43;21.20;99.10
52024;DHT22;38038;45.922;13.604;2022-07-15T01:23:09;21.00;99.20
52024;DHT22;38038;45.922;13.604;2022-07-15T01:25:34;21.00;99.60
52024;DHT22;38038;45.922;13.604;2022-07-15T01:28:00;21.10;99.60
52024;DHT22;38038;45.922;13.604;2022-07-15T01:30:26;21.00;99.90
52024;DHT22;38038;45.922;13.604;2022-07-15T01:32:52;20.90;99.90
52024;DHT22;38038;45.922;13.604;2022-07-15T01:35:18;20.80;99.90
52024;DHT22;38038;45.922;13.604;2022-07-15T01:37:44;20.90;99.90
52024;DHT22;38038;45.922;13.604;2022-07-15T01:40:10;20.90;99.90
52024;DHT22;38038;45.922;13.604;2022-07-15T01:42:37;20.90;99.90
52024;DHT22;38038;45.922;13.604;2022-07-15T01:45:07;21.00;99.80
52024;DHT22;38038;45.922;13.604;2022-07-15T01:47:34;21.00;99.90
52024;DHT22;38038;45.922;13.604;2022-07-15T01:50:06;21.00;99.90
52024;DHT22;38038;45.922;13.604;2022-07-15T01:52:32;21.00;99.90
52024;DHT22;38038;45.922;13.604;2022-07-15T01:54:58;21.00;99.90
52024;DHT22;38038;45.922;13.604;2022-07-15T01:57:23;21.00;99.90
52024;DHT22;38038;45.922;13.604;2022-07-15T01:59:49;20.90;99.90
52024;DHT22;38038;45.922;13.604;2022-07-15T02:02:15;21.00;99.90
52024;DHT22;38038;45.922;13.604;2022-07-15T02:04:41;21.00;99.90
52024;DHT22;38038;45.922;13.604;2022-07-15T02:07:07;20.90;99.90
52024;DHT22;38038;45.922;13.604;2022-07-15T02:09:34;20.90;99.90
52024;DHT22;38038;45.922;13.604;2022-07-15T02:12:00;20.90;99.90
52024;DHT22;38038;45.922;13.604;2022-07-15T02:14:25;20.90;99.90
52024;DHT22;38038;45.922;13.604;2022-07-15T02:16:51;20.80;99.90
52024;DHT22;38038;45.922;13.604;2022-07-15T02:19:17;20.70;99.90
52024;DHT22;38038;45.922;13.604;2022-07-15T02:21:43;20.70;99.90
52024;DHT22;38038;45.922;13.604;2022-07-15T02:24:08;20.60;99.90
52024;DHT22;38038;45.922;13.604;2022-07-15T02:26:35;20.60;99.90
52024;DHT22;38038;45.922;13.604;2022-07-15T02:29:01;20.50;99.90
52024;DHT22;38038;45.922;13.604;2022-07-15T02:31:27;20.50;99.90
52024;DHT22;38038;45.922;13.604;2022-07-15T02:33:53;20.40;99.90
52024;DHT22;38038;45.922;13.604;2022-07-15T02:36:19;20.40;99.90
52024;DHT22;38038;45.922;13.604;2022-07-15T02:38:45;20.30;99.90
52024;DHT22;38038;45.922;13.604;2022-07-15T02:41:10;20.30;99.90
52024;DHT22;38038;45.922;13.604;2022-07-15T02:43:38;20.30;99.90
52024;DHT22;38038;45.922;13.604;2022-07-15T02:46:04;20.30;99.90
52024;DHT22;38038;45.922;13.604;2022-07-15T02:48:30;20.40;99.90
52024;DHT22;38038;45.922;13.604;2022-07-15T02:50:57;20.30;99.90
52024;DHT22;38038;45.922;13.604;2022-07-15T02:53:22;20.40;99.90
52024;DHT22;38038;45.922;13.604;2022-07-15T02:55:55;20.30;99.90
52024;DHT22;38038;45.922;13.604;2022-07-15T02:58:21;20.40;99.90
52024;DHT22;38038;45.922;13.604;2022-07-15T03:00:48;20.40;99.90
52024;DHT22;38038;45.922;13.604;2022-07-15T03:03:14;20.40;99.90
52024;DHT22;38038;45.922;13.604;2022-07-15T03:05:40;20.40;99.90
52024;DHT22;38038;45.922;13.604;2022-07-15T03:08:06;20.50;99.90
52024;DHT22;38038;45.922;13.604;2022-07-15T03:10:31;20.40;99.90
52024;DHT22;38038;45.922;13.604;2022-07-15T03:12:57;20.50;99.90
52024;DHT22;38038;45.922;13.604;2022-07-15T03:15:23;20.40;99.90
52024;DHT22;38038;45.922;13.604;2022-07-15T03:17:48;20.30;99.90
52024;DHT22;38038;45.922;13.604;2022-07-15T03:20:14;20.20;99.90
52024;DHT22;38038;45.922;13.604;2022-07-15T03:22:40;20.20;99.90
52024;DHT22;38038;45.922;13.604;2022-07-15T03:25:07;20.30;99.90
52024;DHT22;38038;45.922;13.604;2022-07-15T03:27:33;20.20;99.90
52024;DHT22;38038;45.922;13.604;2022-07-15T03:29:59;20.20;99.90
52024;DHT22;38038;45.922;13.604;2022-07-15T03:32:25;20.20;99.90
52024;DHT22;38038;45.922;13.604;2022-07-15T03:34:51;20.20;99.90
52024;DHT22;38038;45.922;13.604;2022-07-15T03:37:17;20.30;99.90
52024;DHT22;38038;45.922;13.604;2022-07-15T03:39:43;20.30;99.90
52024;DHT22;38038;45.922;13.604;2022-07-15T03:42:09;20.30;99.90
52024;DHT22;38038;45.922;13.604;2022-07-15T03:44:35;20.30;99.90
52024;DHT22;38038;45.922;13.604;2022-07-15T03:47:01;20.30;99.90
52024;DHT22;38038;45.922;13.604;2022-07-15T03:49:27;20.40;99.90
52024;DHT22;38038;45.922;13.604;2022-07-15T03:51:53;20.40;99.90
52024;DHT22;38038;45.922;13.604;2022-07-15T03:54:19;20.40;99.90
52024;DHT22;38038;45.922;13.604;2022-07-15T03:56:45;20.30;99.90
52024;DHT22;38038;45.922;13.604;2022-07-15T03:59:17;20.30;99.90
52024;DHT22;38038;45.922;13.604;2022-07-15T04:01:46;20.30;99.90
52024;DHT22;38038;45.922;13.604;2022-07-15T04:04:14;20.30;99.90
52024;DHT22;38038;45.922;13.604;2022-07-15T04:06:39;20.10;99.90
52024;DHT22;38038;45.922;13.604;2022-07-15T04:09:05;20.10;99.90
52024;DHT22;38038;45.922;13.604;2022-07-15T04:11:31;20.20;99.90
52024;DHT22;38038;45.922;13.604;2022-07-15T04:13:56;20.10;99.90
52024;DHT22;38038;45.922;13.604;2022-07-15T04:16:22;20.30;99.90
52024;DHT22;38038;45.922;13.604;2022-07-15T04:18:48;20.20;99.90
52024;DHT22;38038;45.922;13.604;2022-07-15T04:21:16;20.20;99.90
52024;DHT22;38038;45.922;13.604;2022-07-15T04:23:41;20.90;99.90
52024;DHT22;38038;45.922;13.604;2022-07-15T12:45:25;34.10;64.70
52024;DHT22;38038;45.922;13.604;2022-07-15T12:48:11;34.40;64.00
52024;DHT22;38038;45.922;13.604;2022-07-15T12:53:21;34.80;62.10
52024;DHT22;38038;45.922;13.604;2022-07-15T12:55:48;34.80;61.40
52024;DHT22;38038;45.922;13.604;2022-07-15T12:58:24;34.90;61.70
52024;DHT22;38038;45.922;13.604;2022-07-15T13:00:50;34.70;61.10
52024;DHT22;38038;45.922;13.604;2022-07-15T13:03:20;34.70;61.40
52024;DHT22;38038;45.922;13.604;2022-07-15T13:05:51;34.80;60.10
52024;DHT22;38038;45.922;13.604;2022-07-15T13:08:19;34.80;59.60
52024;DHT22;38038;45.922;13.604;2022-07-15T13:10:47;34.90;60.50
52024;DHT22;38038;45.922;13.604;2022-07-15T13:13:15;35.00;59.70
52024;DHT22;38038;45.922;13.604;2022-07-15T13:15:42;35.00;58.50
52024;DHT22;38038;45.922;13.604;2022-07-15T13:18:08;34.90;58.70
52024;DHT22;38038;45.922;13.604;2022-07-15T13:20:34;35.10;58.40
52024;DHT22;38038;45.922;13.604;2022-07-15T13:23:00;35.00;58.00
52024;DHT22;38038;45.922;13.604;2022-07-15T13:25:27;35.00;57.80
52024;DHT22;38038;45.922;13.604;2022-07-15T13:27:53;35.00;57.60
52024;DHT22;38038;45.922;13.604;2022-07-15T13:30:19;34.80;57.40
52024;DHT22;38038;45.922;13.604;2022-07-15T13:32:45;34.70;57.20
52024;DHT22;38038;45.922;13.604;2022-07-15T13:35:12;34.70;57.20
52024;DHT22;38038;45.922;13.604;2022-07-15T13:37:38;34.70;57.10
52024;DHT22;38038;45.922;13.604;2022-07-15T13:40:05;34.50;57.10
52024;DHT22;38038;45.922;13.604;2022-07-15T13:42:31;34.50;56.90
52024;DHT22;38038;45.922;13.604;2022-07-15T13:44:57;34.50;57.30
52024;DHT22;38038;45.922;13.604;2022-07-15T13:47:24;34.60;57.20
52024;DHT22;38038;45.922;13.604;2022-07-15T13:49:49;34.70;57.10
52024;DHT22;38038;45.922;13.604;2022-07-15T13:52:36;34.70;57.20
52024;DHT22;38038;45.922;13.604;2022-07-15T13:55:06;34.70;57.10
52024;DHT22;38038;45.922;13.604;2022-07-15T13:57:32;34.60;56.90
52024;DHT22;38038;45.922;13.604;2022-07-15T13:59:58;34.70;56.30
52024;DHT22;38038;45.922;13.604;2022-07-15T14:02:23;34.70;56.60
52024;DHT22;38038;45.922;13.604;2022-07-15T14:04:49;34.70;56.20
52024;DHT22;38038;45.922;13.604;2022-07-15T14:07:15;34.70;56.00
52024;DHT22;38038;45.922;13.604;2022-07-15T14:09:41;34.50;55.90
52024;DHT22;38038;45.922;13.604;2022-07-15T14:12:06;34.40;57.60
52024;DHT22;38038;45.922;13.604;2022-07-15T14:14:32;34.50;56.00
52024;DHT22;38038;45.922;13.604;2022-07-15T14:16:58;34.50;55.70
52024;DHT22;38038;45.922;13.604;2022-07-15T14:19:24;34.60;55.60
52024;DHT22;38038;45.922;13.604;2022-07-15T14:21:49;34.60;55.90
52024;DHT22;38038;45.922;13.604;2022-07-15T14:24:15;34.50;55.90
52024;DHT22;38038;45.922;13.604;2022-07-15T14:26:41;34.50;55.60
52024;DHT22;38038;45.922;13.604;2022-07-15T14:29:06;34.60;55.90
52024;DHT22;38038;45.922;13.604;2022-07-15T14:31:33;34.70;55.90
52024;DHT22;38038;45.922;13.604;2022-07-15T14:33:58;34.60;55.70
52024;DHT22;38038;45.922;13.604;2022-07-15T14:36:24;34.60;55.70
52024;DHT22;38038;45.922;13.604;2022-07-15T14:38:50;34.50;55.10
52024;DHT22;38038;45.922;13.604;2022-07-15T14:41:15;34.40;54.90
52024;DHT22;38038;45.922;13.604;2022-07-15T14:43:41;34.40;55.50
52024;DHT22;38038;45.922;13.604;2022-07-15T14:46:07;34.40;56.60
52024;DHT22;38038;45.922;13.604;2022-07-15T14:48:33;34.40;56.90
52024;DHT22;38038;45.922;13.604;2022-07-15T14:50:58;34.50;56.30
52024;DHT22;38038;45.922;13.604;2022-07-15T14:53:25;34.60;55.40
52024;DHT22;38038;45.922;13.604;2022-07-15T14:55:51;34.60;55.90
52024;DHT22;38038;45.922;13.604;2022-07-15T14:58:16;34.60;55.30
52024;DHT22;38038;45.922;13.604;2022-07-15T15:00:45;34.50;55.70
52024;DHT22;38038;45.922;13.604;2022-07-15T15:03:12;34.50;56.80
52024;DHT22;38038;45.922;13.604;2022-07-15T15:05:38;34.50;57.00
52024;DHT22;38038;45.922;13.604;2022-07-15T15:08:04;34.60;55.20
52024;DHT22;38038;45.922;13.604;2022-07-15T15:10:29;34.60;55.70
52024;DHT22;38038;45.922;13.604;2022-07-15T15:12:55;34.50;54.80
52024;DHT22;38038;45.922;13.604;2022-07-15T15:15:21;34.30;55.80
52024;DHT22;38038;45.922;13.604;2022-07-15T15:17:49;34.30;56.50
52024;DHT22;38038;45.922;13.604;2022-07-15T15:20:15;34.10;56.80
52024;DHT22;38038;45.922;13.604;2022-07-15T15:22:41;34.00;57.80
52024;DHT22;38038;45.922;13.604;2022-07-15T15:25:07;34.00;57.10
52024;DHT22;38038;45.922;13.604;2022-07-15T15:27:34;34.10;56.20
52024;DHT22;38038;45.922;13.604;2022-07-15T15:30:00;34.20;56.60
52024;DHT22;38038;45.922;13.604;2022-07-15T15:32:27;34.10;57.70
52024;DHT22;38038;45.922;13.604;2022-07-15T15:34:52;34.00;57.30
52024;DHT22;38038;45.922;13.604;2022-07-15T15:37:19;33.90;56.80
52024;DHT22;38038;45.922;13.604;2022-07-15T15:39:45;34.00;57.30
52024;DHT22;38038;45.922;13.604;2022-07-15T15:42:11;34.00;56.40
52024;DHT22;38038;45.922;13.604;2022-07-15T15:44:38;34.00;56.20
52024;DHT22;38038;45.922;13.604;2022-07-15T15:47:05;34.00;56.20
52024;DHT22;38038;45.922;13.604;2022-07-15T15:49:31;33.90;56.80
52024;DHT22;38038;45.922;13.604;2022-07-15T15:51:57;33.80;56.60
52024;DHT22;38038;45.922;13.604;2022-07-15T15:54:22;33.70;57.10
52024;DHT22;38038;45.922;13.604;2022-07-15T15:56:49;33.50;57.70
52024;DHT22;38038;45.922;13.604;2022-07-15T15:59:15;33.50;57.50
52024;DHT22;38038;45.922;13.604;2022-07-15T16:01:41;33.70;57.40
52024;DHT22;38038;45.922;13.604;2022-07-15T16:04:06;33.70;58.50
52024;DHT22;38038;45.922;13.604;2022-07-15T16:06:32;33.80;57.70
52024;DHT22;38038;45.922;13.604;2022-07-15T16:08:58;33.90;57.40
52024;DHT22;38038;45.922;13.604;2022-07-15T16:11:23;34.00;57.30
52024;DHT22;38038;45.922;13.604;2022-07-15T16:13:49;33.80;58.90
52024;DHT22;38038;45.922;13.604;2022-07-15T16:16:16;33.80;58.30
52024;DHT22;38038;45.922;13.604;2022-07-15T16:18:41;33.90;61.50
52024;DHT22;38038;45.922;13.604;2022-07-15T16:21:07;33.80;61.10
52024;DHT22;38038;45.922;13.604;2022-07-15T16:23:33;33.70;61.50
52024;DHT22;38038;45.922;13.604;2022-07-15T16:25:59;33.60;64.50
52024;DHT22;38038;45.922;13.604;2022-07-15T16:28:25;33.50;67.60
52024;DHT22;38038;45.922;13.604;2022-07-15T16:30:51;33.40;68.30
52024;DHT22;38038;45.922;13.604;2022-07-15T16:33:17;33.20;68.80
52024;DHT22;38038;45.922;13.604;2022-07-15T16:35:43;33.10;68.50
52024;DHT22;38038;45.922;13.604;2022-07-15T16:38:10;32.90;68.20
52024;DHT22;38038;45.922;13.604;2022-07-15T16:40:37;33.00;69.10
52024;DHT22;38038;45.922;13.604;2022-07-15T16:43:04;32.90;70.00
52024;DHT22;38038;45.922;13.604;2022-07-15T16:45:31;33.00;69.70
52024;DHT22;38038;45.922;13.604;2022-07-15T16:47:57;33.10;69.50
52024;DHT22;38038;45.922;13.604;2022-07-15T16:50:23;32.90;69.80
52024;DHT22;38038;45.922;13.604;2022-07-15T16:52:49;32.90;70.10
52024;DHT22;38038;45.922;13.604;2022-07-15T16:55:15;32.80;70.10
52024;DHT22;38038;45.922;13.604;2022-07-15T16:57:41;32.70;70.10
52024;DHT22;38038;45.922;13.604;2022-07-15T17:00:09;32.70;69.80
52024;DHT22;38038;45.922;13.604;2022-07-15T17:02:35;32.80;70.30
52024;DHT22;38038;45.922;13.604;2022-07-15T17:05:02;32.60;70.50
52024;DHT22;38038;45.922;13.604;2022-07-15T17:07:27;32.40;70.70
52024;DHT22;38038;45.922;13.604;2022-07-15T17:09:54;32.40;71.00
52024;DHT22;38038;45.922;13.604;2022-07-15T17:12:20;32.20;71.40
52024;DHT22;38038;45.922;13.604;2022-07-15T17:14:46;32.00;71.60
52024;DHT22;38038;45.922;13.604;2022-07-15T17:17:12;31.90;72.10
52024;DHT22;38038;45.922;13.604;2022-07-15T17:19:37;31.90;71.90
52024;DHT22;38038;45.922;13.604;2022-07-15T17:22:03;31.90;72.30
52024;DHT22;38038;45.922;13.604;2022-07-15T17:24:30;31.80;72.60
52024;DHT22;38038;45.922;13.604;2022-07-15T17:26:55;31.70;72.40
52024;DHT22;38038;45.922;13.604;2022-07-15T17:29:21;31.70;72.20
52024;DHT22;38038;45.922;13.604;2022-07-15T17:31:47;31.70;72.40
52024;DHT22;38038;45.922;13.604;2022-07-15T17:34:13;31.60;72.20
52024;DHT22;38038;45.922;13.604;2022-07-15T17:36:39;31.70;72.70
52024;DHT22;38038;45.922;13.604;2022-07-15T17:39:05;31.60;72.80
52024;DHT22;38038;45.922;13.604;2022-07-15T17:41:31;31.50;73.10
52024;DHT22;38038;45.922;13.604;2022-07-15T17:43:57;31.40;73.10
52024;DHT22;38038;45.922;13.604;2022-07-15T17:46:23;31.10;74.40
52024;DHT22;38038;45.922;13.604;2022-07-15T17:48:49;31.00;74.00
52024;DHT22;38038;45.922;13.604;2022-07-15T17:51:14;30.90;74.10
52024;DHT22;38038;45.922;13.604;2022-07-15T17:53:40;30.80;74.80
52024;DHT22;38038;45.922;13.604;2022-07-15T17:56:06;30.70;74.60
52024;DHT22;38038;45.922;13.604;2022-07-15T17:58:32;30.60;74.90
52024;DHT22;38038;45.922;13.604;2022-07-15T18:00:57;30.50;75.20
52024;DHT22;38038;45.922;13.604;2022-07-15T18:03:23;30.30;75.30
52024;DHT22;38038;45.922;13.604;2022-07-15T18:05:49;30.30;75.50
52024;DHT22;38038;45.922;13.604;2022-07-15T18:08:15;30.20;75.70
52024;DHT22;38038;45.922;13.604;2022-07-15T18:10:42;30.20;75.60
52024;DHT22;38038;45.922;13.604;2022-07-15T18:13:09;30.10;76.10
52024;DHT22;38038;45.922;13.604;2022-07-15T18:15:35;30.00;76.20
52024;DHT22;38038;45.922;13.604;2022-07-15T18:18:01;29.90;76.20
52024;DHT22;38038;45.922;13.604;2022-07-15T18:20:27;30.00;76.00
52024;DHT22;38038;45.922;13.604;2022-07-15T18:22:53;30.10;76.00
52024;DHT22;38038;45.922;13.604;2022-07-15T18:25:19;30.00;76.10
52024;DHT22;38038;45.922;13.604;2022-07-15T18:27:45;30.00;76.30
52024;DHT22;38038;45.922;13.604;2022-07-15T18:30:11;30.00;76.20
52024;DHT22;38038;45.922;13.604;2022-07-15T18:32:40;30.00;76.10
52024;DHT22;38038;45.922;13.604;2022-07-15T18:35:07;30.00;76.10
52024;DHT22;38038;45.922;13.604;2022-07-15T18:37:34;30.00;76.10
52024;DHT22;38038;45.922;13.604;2022-07-15T18:40:00;30.00;76.00
52024;DHT22;38038;45.922;13.604;2022-07-15T18:42:25;29.90;76.20
52024;DHT22;38038;45.922;13.604;2022-07-15T18:44:51;29.80;76.60
52024;DHT22;38038;45.922;13.604;2022-07-15T18:47:17;29.80;76.40
52024;DHT22;38038;45.922;13.604;2022-07-15T18:49:42;29.70;76.60
52024;DHT22;38038;45.922;13.604;2022-07-15T18:52:08;29.50;77.00
52024;DHT22;38038;45.922;13.604;2022-07-15T18:54:34;29.40;76.90
52024;DHT22;38038;45.922;13.604;2022-07-15T18:56:59;29.40;77.00
52024;DHT22;38038;45.922;13.604;2022-07-15T18:59:25;29.40;76.90
52024;DHT22;38038;45.922;13.604;2022-07-15T19:01:51;29.40;77.50
52024;DHT22;38038;45.922;13.604;2022-07-15T19:04:17;29.20;77.30
52024;DHT22;38038;45.922;13.604;2022-07-15T19:06:43;29.10;77.30
52024;DHT22;38038;45.922;13.604;2022-07-15T19:09:09;29.20;77.20
52024;DHT22;38038;45.922;13.604;2022-07-15T19:11:34;29.00;77.60
52024;DHT22;38038;45.922;13.604;2022-07-15T19:14:00;29.00;77.70
52024;DHT22;38038;45.922;13.604;2022-07-15T19:16:26;29.00;77.50
52024;DHT22;38038;45.922;13.604;2022-07-15T19:18:52;29.00;77.60
52024;DHT22;38038;45.922;13.604;2022-07-15T19:21:17;28.90;78.10
52024;DHT22;38038;45.922;13.604;2022-07-15T19:23:43;28.90;77.90
52024;DHT22;38038;45.922;13.604;2022-07-15T19:26:09;29.00;77.70
52024;DHT22;38038;45.922;13.604;2022-07-15T19:28:35;29.00;77.70
52024;DHT22;38038;45.922;13.604;2022-07-15T19:31:01;28.90;78.40
52024;DHT22;38038;45.922;13.604;2022-07-15T19:33:26;28.80;78.20
52024;DHT22;38038;45.922;13.604;2022-07-15T19:35:55;28.60;78.70
52024;DHT22;38038;45.922;13.604;2022-07-15T19:38:22;28.60;78.50
52024;DHT22;38038;45.922;13.604;2022-07-15T19:40:48;28.50;78.50
52024;DHT22;38038;45.922;13.604;2022-07-15T19:43:15;28.50;79.00
52024;DHT22;38038;45.922;13.604;2022-07-15T19:45:41;28.30;78.90
52024;DHT22;38038;45.922;13.604;2022-07-15T19:48:07;28.20;79.40
52024;DHT22;38038;45.922;13.604;2022-07-15T19:50:33;28.20;79.40
52024;DHT22;38038;45.922;13.604;2022-07-15T19:52:59;28.20;79.50
52024;DHT22;38038;45.922;13.604;2022-07-15T19:55:24;28.10;79.80
52024;DHT22;38038;45.922;13.604;2022-07-15T19:57:50;28.20;79.70
52024;DHT22;38038;45.922;13.604;2022-07-15T20:00:16;28.00;80.10
52024;DHT22;38038;45.922;13.604;2022-07-15T20:02:49;27.90;80.00
52024;DHT22;38038;45.922;13.604;2022-07-15T20:05:15;27.90;80.20
52024;DHT22;38038;45.922;13.604;2022-07-15T20:07:42;27.80;80.10
52024;DHT22;38038;45.922;13.604;2022-07-15T20:10:09;27.90;80.00
52024;DHT22;38038;45.922;13.604;2022-07-15T20:12:35;27.90;80.20
52024;DHT22;38038;45.922;13.604;2022-07-15T20:15:02;27.80;80.00
52024;DHT22;38038;45.922;13.604;2022-07-15T20:17:28;27.80;80.20
52024;DHT22;38038;45.922;13.604;2022-07-15T20:19:54;27.70;80.20
52024;DHT22;38038;45.922;13.604;2022-07-15T20:22:21;27.70;80.40
52024;DHT22;38038;45.922;13.604;2022-07-15T20:24:47;27.70;80.70
52024;DHT22;38038;45.922;13.604;2022-07-15T20:27:12;27.70;80.60
52024;DHT22;38038;45.922;13.604;2022-07-15T20:29:39;27.50;81.10
52024;DHT22;38038;45.922;13.604;2022-07-15T20:32:05;27.40;81.40
52024;DHT22;38038;45.922;13.604;2022-07-15T20:34:32;27.40;81.10
52024;DHT22;38038;45.922;13.604;2022-07-15T20:36:58;27.30;81.10
52024;DHT22;38038;45.922;13.604;2022-07-15T20:39:24;27.40;81.10
52024;DHT22;38038;45.922;13.604;2022-07-15T20:41:50;27.40;81.00
52024;DHT22;38038;45.922;13.604;2022-07-15T20:44:15;27.30;81.20
52024;DHT22;38038;45.922;13.604;2022-07-15T20:46:41;27.10;81.60
52024;DHT22;38038;45.922;13.604;2022-07-15T20:49:07;26.90;82.00
52024;DHT22;38038;45.922;13.604;2022-07-15T20:51:33;27.00;82.60
52024;DHT22;38038;45.922;13.604;2022-07-15T20:54:02;26.90;82.00
52024;DHT22;38038;45.922;13.604;2022-07-15T20:56:28;26.80;82.40
52024;DHT22;38038;45.922;13.604;2022-07-15T20:58:54;26.70;82.80
52024;DHT22;38038;45.922;13.604;2022-07-15T21:01:19;26.80;82.40
52024;DHT22;38038;45.922;13.604;2022-07-15T21:03:45;26.70;82.50
52024;DHT22;38038;45.922;13.604;2022-07-15T21:06:11;26.70;82.70
52024;DHT22;38038;45.922;13.604;2022-07-15T21:08:37;26.60;82.70
52024;DHT22;38038;45.922;13.604;2022-07-15T21:11:02;26.60;82.50
52024;DHT22;38038;45.922;13.604;2022-07-15T21:13:29;26.70;82.40
52024;DHT22;38038;45.922;13.604;2022-07-15T21:15:55;26.60;82.60
52024;DHT22;38038;45.922;13.604;2022-07-15T21:18:21;26.70;82.30
52024;DHT22;38038;45.922;13.604;2022-07-15T21:20:47;26.60;82.40
52024;DHT22;38038;45.922;13.604;2022-07-15T21:23:13;26.60;82.40
52024;DHT22;38038;45.922;13.604;2022-07-15T21:25:39;26.60;82.60
52024;DHT22;38038;45.922;13.604;2022-07-15T21:28:23;26.50;82.60
52024;DHT22;38038;45.922;13.604;2022-07-15T21:30:48;26.50;82.70
52024;DHT22;38038;45.922;13.604;2022-07-15T21:33:14;26.50;82.60
52024;DHT22;38038;45.922;13.604;2022-07-15T21:35:40;26.60;82.60
52024;DHT22;38038;45.922;13.604;2022-07-15T21:38:05;26.50;82.10
52024;DHT22;38038;45.922;13.604;2022-07-15T21:40:31;26.50;82.00
52024;DHT22;38038;45.922;13.604;2022-07-15T21:42:57;26.40;82.10
